ADDS METAR Data INFO
IDs: Format: Raw Decoded Include TAF

Data at: 1955 UTC 15 Dec 2017

KFRR 151935Z AUTO 10SM BKN043 OVC050 M01/M07 A2990 RMK AO1
KFRR 151915Z AUTO 10SM BKN041 OVC046 M01/M07 A2989 RMK AO1
KFRR 151855Z AUTO 10SM OVC036 M01/M07 A2989 RMK AO1
KFRR 151835Z AUTO 7SM OVC034 M01/M08 A2990 RMK AO1
KFRR 151815Z AUTO 10SM OVC034 M01/M08 A2991 RMK AO1
KFRR 151755Z AUTO 10SM OVC032 M01/M08 A2991 RMK AO1
KFRR 151735Z AUTO 10SM OVC032 M01/M08 A2992 RMK AO1
KFRR 151715Z AUTO 10SM OVC032 M01/M08 A2994 RMK AO1
KFRR 151655Z AUTO 10SM OVC034 M01/M08 A2995 RMK AO1
KFRR 151635Z AUTO 10SM OVC036 M01/M08 A2997 RMK AO1
KFRR 151615Z AUTO 10SM OVC036 M02/M08 A2999 RMK AO1
KFRR 151555Z AUTO 10SM OVC036 M01/M08 A3000 RMK AO1
KFRR 151535Z AUTO 10SM OVC038 M02/M08 A3000 RMK AO1
KFRR 151515Z AUTO 10SM BKN040 OVC047 M02/M08 A3001 RMK AO1
KFRR 151455Z AUTO 10SM OVC047 M02/M08 A3002 RMK AO1
KFRR 151435Z AUTO 10SM OVC045 M02/M09 A3002 RMK AO1
KFRR 151415Z AUTO 10SM OVC045 M02/M08 A3002 RMK AO1
KFRR 151355Z AUTO 10SM OVC045 M02/M08 A3002 RMK AO1
KFRR 151335Z AUTO 10SM OVC043 M02/M09 A3001 RMK AO1
KFRR 151315Z AUTO 10SM OVC043 M02/M09 A3002 RMK AO1
KFRR 151255Z AUTO 10SM OVC043 M02/M08 A3003 RMK AO1
KFRR 151235Z AUTO 10SM OVC043 M03/M09 A3003 RMK AO1
KFRR 151215Z AUTO 00000KT 10SM OVC041 M03/M09 A3003 RMK AO1
KFRR 151155Z AUTO 00000KT 10SM OVC041 M03/M08 A3004 RMK AO1
KFRR 151135Z AUTO 00000KT 10SM OVC041 M03/M09 A3003 RMK AO1
KFRR 151115Z AUTO 00000KT 10SM OVC041 M03/M08 A3004 RMK AO1
KFRR 151055Z AUTO 00000KT 10SM OVC043 M03/M09 A3004 RMK AO1
KFRR 151035Z AUTO 10SM OVC043 M03/M08 A3005 RMK AO1
KFRR 151015Z AUTO 10SM OVC043 M03/M09 A3004 RMK AO1
KFRR 150955Z AUTO 10SM OVC045 M04/M09 A3005 RMK AO1
KFRR 150935Z AUTO 10SM OVC047 M04/M08 A3005 RMK AO1
KFRR 150915Z AUTO 10SM OVC045 M04/M08 A3006 RMK AO1
KFRR 150855Z AUTO 10SM OVC045 M04/M09 A3006 RMK AO1
KFRR 150835Z AUTO 10SM BKN047 M05/M10 A3007 RMK AO1
KFRR 150815Z AUTO 10SM SCT047 M05/M10 A3007 RMK AO1
KFRR 150755Z AUTO 10SM CLR M04/M11 A3007 RMK AO1
KFRR 150735Z AUTO 10SM CLR M04/M11 A3007 RMK AO1
KFRR 150715Z AUTO 10SM SCT046 M04/M11 A3006 RMK AO1
KFRR 150655Z AUTO 10SM BKN046 M03/M11 A3006 RMK AO1
KFRR 150635Z AUTO 10SM SCT046 M03/M10 A3007 RMK AO1
KFRR 150615Z AUTO 10SM CLR M03/M10 A3007 RMK AO1
KFRR 150555Z AUTO 10SM CLR M03/M10 A3007 RMK AO1
KFRR 150535Z AUTO 10SM CLR M03/M10 A3006 RMK AO1
KFRR 150515Z AUTO 10SM CLR M03/M09 A3007 RMK AO1
KFRR 150455Z AUTO 10SM CLR M03/M09 A3007 RMK AO1
KFRR 150435Z AUTO 10SM CLR M02/M09 A3007 RMK AO1
KFRR 150415Z AUTO 10SM CLR M02/M09 A3006 RMK AO1
KFRR 150355Z AUTO 10SM CLR M02/M09 A3007 RMK AO1
KFRR 150335Z AUTO 10SM CLR M02/M09 A3007 RMK AO1
KFRR 150315Z AUTO 10SM CLR M02/M09 A3006 RMK AO1
KFRR 150255Z AUTO 10SM CLR M02/M08 A3006 RMK AO1
KFRR 150235Z AUTO 10SM CLR M02/M08 A3006 RMK AO1
KFRR 150210Z AUTO 00000KT 10SM CLR M01/M07 A3006 RMK AO1
KFRR 150155Z AUTO 00000KT 10SM CLR M01/M07 A3005 RMK AO1
KFRR 150135Z AUTO 10SM CLR M01/M07 A3005 RMK AO1
KFRR 150115Z AUTO 00000KT 10SM CLR M01/M07 A3005 RMK AO1
KFRR 150055Z AUTO 00000KT 10SM CLR M01/M07 A3004 RMK AO1
KFRR 150035Z AUTO 00000KT 10SM CLR M01/M07 A3002 RMK AO1
KFRR 150015Z AUTO 10SM CLR M01/M07 A3001 RMK AO1
KFRR 142355Z AUTO 10SM CLR 00/M07 A3001 RMK AO1
KFRR 142335Z AUTO 33003KT 10SM CLR 00/M07 A3000 RMK AO1
KFRR 142315Z AUTO 34003KT 10SM CLR 00/M07 A2999 RMK AO1
KFRR 142255Z AUTO 35004KT 10SM CLR 00/M07 A2999 RMK AO1
KFRR 142235Z AUTO 35004KT 10SM CLR 00/M07 A2997 RMK AO1
KFRR 142215Z AUTO 10SM CLR 00/M07 A2996 RMK AO1
KFRR 142155Z AUTO 36005KT 10SM CLR 00/M07 A2995 RMK AO1
KFRR 142135Z AUTO 35004KT 10SM SCT050 01/M07 A2994 RMK AO1
KFRR 142115Z AUTO 30003KT 10SM SCT050 01/M07 A2993 RMK AO1
KFRR 142055Z AUTO 35004KT 10SM BKN050 02/M07 A2993 RMK AO1
KFRR 142035Z AUTO 34008KT 10SM BKN055 02/M07 A2991 RMK AO1
KFRR 142015Z AUTO 33007G14KT 10SM BKN055 02/M08 A2991 RMK AO1
KFRR 141955Z AUTO 10SM SCT055 03/M08 A2990 RMK AO1
KFRR 141935Z AUTO 10SM SCT055 03/M08 A2988 RMK AO1
KFRR 141915Z AUTO 10SM SCT055 03/M08 A2987 RMK AO1
KFRR 141855Z AUTO 10SM SCT055 03/M08 A2986 RMK AO1
KFRR 141835Z AUTO 28004KT 10SM CLR 03/M08 A2985 RMK AO1
KFRR 141815Z AUTO 10SM SCT050 03/M08 A2985 RMK AO1
KFRR 141755Z AUTO 10SM BKN050 03/M08 A2985 RMK AO1
KFRR 141735Z AUTO 10SM BKN050 03/M08 A2985 RMK AO1
KFRR 141715Z AUTO 10SM BKN050 BKN055 03/M08 A2986 RMK AO1
KFRR 141655Z AUTO 10SM BKN048 BKN050 02/M07 A2985 RMK AO1
KFRR 141635Z AUTO 33008G15KT 10SM BKN048 BKN055 01/M07 A2985 RMK AO1
KFRR 141615Z AUTO 32011G18KT 10SM BKN050 02/M06 A2983 RMK AO1
KFRR 141555Z AUTO 33006KT 10SM OVC050 02/M08 A2984 RMK AO1
KFRR 141535Z AUTO 10SM OVC050 03/M07 A2981 RMK AO1
KFRR 141515Z AUTO 33009G15KT 300V360 10SM OVC046 02/M07 A2979 RMK AO1
KFRR 141455Z AUTO 00000KT 10SM OVC046 03/M06 A2977 RMK AO1
KFRR 141435Z AUTO 29006KT 10SM OVC046 03/M06 A2973 RMK AO1
KFRR 141415Z AUTO 28009G16KT 240V340 10SM OVC046 03/M06 A2972 RMK AO1
KFRR 141355Z AUTO 00000KT 10SM BKN048 03/M06 A2971 RMK AO1
KFRR 141335Z AUTO 10SM BKN050 BKN055 03/M06 A2968 RMK AO1
KFRR 141315Z AUTO 10SM BKN050 03/M06 A2966 RMK AO1
KFRR 141255Z AUTO 27020KT 10SM BKN050 03/M06 A2965 RMK AO1
KFRR 141235Z AUTO 26012KT 10SM SCT048 BKN050 03/M05 A2963 RMK AO1
KFRR 141215Z AUTO 27016KT 10SM SCT039 SCT046 BKN065 04/M04 A2960 RMK AO1
KFRR 141155Z AUTO 10SM SCT041 BKN048 OVC065 05/M02 A2958 RMK AO1
KFRR 141135Z AUTO 27011KT 10SM SCT038 BKN046 OVC050 05/M02 A2956 RMK AO1
KFRR 141115Z AUTO 00000KT 10SM SCT042 BKN050 BKN070 02/M03 A2954 RMK AO1
KFRR 141055Z AUTO 00000KT 10SM SCT044 BKN060 OVC065 00/M07 A2953 RMK AO1
KFRR 141035Z AUTO 00000KT 10SM OVC060 00/M08 A2952 RMK AO1
KFRR 141015Z AUTO 10SM BKN060 OVC070 00/M08 A2950 RMK AO1
KFRR 140955Z AUTO 10SM SCT070 OVC080 00/M08 A2947 RMK AO1
KFRR 140935Z AUTO 00000KT 10SM SCT070 OVC080 02/M08 A2945 RMK AO1
KFRR 140915Z AUTO 24005KT 10SM BKN080 02/M08 A2944 RMK AO1
KFRR 140855Z AUTO 22006KT 10SM SCT080 02/M08 A2943 RMK AO1
KFRR 140835Z AUTO 22004KT 10SM CLR 01/M09 A2944 RMK AO1
KFRR 140815Z AUTO 00000KT 10SM SCT070 00/M09 A2944 RMK AO1